createdAt,value
2017-07-20T00:00:22.847Z,100478.72
2017-07-20T00:02:51.371Z,100472.83
2017-07-20T00:05:19.724Z,100463.89
2017-07-20T00:07:48.082Z,100450.66
2017-07-20T00:10:16.849Z,100441.78
2017-07-20T00:12:45.243Z,100440.78
2017-07-20T00:15:14.021Z,100440.08
2017-07-20T00:17:42.383Z,100435.39
2017-07-20T00:20:10.749Z,100434.04
2017-07-20T00:22:39.140Z,100435.12
2017-07-20T00:25:07.503Z,100430.34
2017-07-20T00:27:35.852Z,100418.86
2017-07-20T00:30:04.680Z,100412.47
2017-07-20T00:32:33.041Z,100400.05
2017-07-20T00:35:01.417Z,100386.47
2017-07-20T00:37:29.798Z,100384.21
2017-07-20T00:39:58.166Z,100376.89
2017-07-20T00:42:26.537Z,100354.94
2017-07-20T00:44:54.903Z,100338.77
2017-07-20T00:47:23.655Z,100330.59
2017-07-20T00:49:52.017Z,100327.27
2017-07-20T00:52:20.604Z,100317.83
2017-07-20T00:54:48.956Z,100314.20
2017-07-20T00:57:17.307Z,100324.21
2017-07-20T00:59:46.090Z,100350.13
2017-07-20T01:02:14.842Z,100371.98
2017-07-20T01:04:43.202Z,100378.38
2017-07-20T01:07:11.557Z,100391.28
2017-07-20T01:09:39.912Z,100400.16
2017-07-20T01:12:08.272Z,100407.77
2017-07-20T01:14:36.641Z,100422.61
2017-07-20T01:17:04.998Z,100432.27
2017-07-20T01:19:33.707Z,100420.84
2017-07-20T01:22:02.069Z,100421.61
2017-07-20T01:24:30.435Z,100411.75
2017-07-20T01:26:58.805Z,100400.53
2017-07-20T01:29:27.151Z,100391.38
2017-07-20T01:31:55.525Z,100394.08
2017-07-20T01:34:23.878Z,100393.65
2017-07-20T01:36:52.250Z,100392.08
2017-07-20T01:39:20.600Z,100387.53
2017-07-20T01:41:49.034Z,100386.56
2017-07-20T01:44:17.386Z,100389.87
2017-07-20T01:46:46.080Z,100399.41
2017-07-20T01:49:14.448Z,100405.08
2017-07-20T01:51:42.809Z,100395.13
2017-07-20T01:54:11.184Z,100391.73
2017-07-20T01:56:39.535Z,100384.70
2017-07-20T01:59:07.980Z,100388.23
2017-07-20T02:01:36.341Z,100403.44
2017-07-20T02:04:04.714Z,100416.16
2017-07-20T02:06:33.370Z,100424.80
2017-07-20T02:09:02.429Z,100424.19
2017-07-20T02:11:32.453Z,100420.05
2017-07-20T02:14:00.813Z,100422.10
2017-07-20T02:16:29.860Z,100421.69
2017-07-20T02:18:58.595Z,100418.06
2017-07-20T02:21:26.978Z,100412.45
2017-07-20T02:23:55.328Z,100409.31
2017-07-20T02:26:23.698Z,100392.66
2017-07-20T02:28:52.057Z,100379.19
2017-07-20T02:31:20.803Z,100381.59
2017-07-20T02:33:49.161Z,100382.97
2017-07-20T02:36:17.767Z,100378.80
2017-07-20T02:38:46.142Z,100371.76
2017-07-20T02:41:14.505Z,100368.52
2017-07-20T02:43:42.877Z,100368.72
2017-07-20T02:46:11.233Z,100368.92
2017-07-20T02:48:39.591Z,100371.97
2017-07-20T02:51:07.952Z,100368.52
2017-07-20T02:53:36.327Z,100368.56
2017-07-20T02:56:04.671Z,100372.03
2017-07-20T02:58:33.045Z,100380.06
2017-07-20T03:01:01.407Z,100377.97
2017-07-20T03:03:30.392Z,100375.24
2017-07-20T03:05:58.740Z,100374.67
2017-07-20T03:08:27.091Z,100379.11
2017-07-20T03:10:55.455Z,100383.59
2017-07-20T03:13:23.798Z,100388.73
2017-07-20T03:15:52.163Z,100393.81
2017-07-20T03:18:20.531Z,100390.50
2017-07-20T03:20:48.901Z,100386.88
2017-07-20T03:23:17.266Z,100383.91
2017-07-20T03:25:45.628Z,100392.80
2017-07-20T03:28:13.998Z,100390.19
2017-07-20T03:30:42.766Z,100388.81
2017-07-20T03:33:11.132Z,100395.83
2017-07-20T03:35:39.491Z,100399.86
2017-07-20T03:38:07.898Z,100403.94
2017-07-20T03:40:36.252Z,100397.97
2017-07-20T03:43:04.608Z,100401.59
2017-07-20T03:45:33.211Z,100392.14
2017-07-20T03:48:01.569Z,100393.48
2017-07-20T03:50:29.929Z,100389.34
2017-07-20T03:52:58.692Z,100387.25
2017-07-20T03:55:27.053Z,100392.56
2017-07-20T03:57:55.417Z,100387.37
2017-07-20T04:00:23.768Z,100384.61
2017-07-20T04:02:52.128Z,100387.30
2017-07-20T04:05:20.485Z,100385.60
2017-07-20T04:07:49.291Z,100388.20
2017-07-20T04:10:18.031Z,100378.48
2017-07-20T04:12:46.383Z,100375.78
2017-07-20T04:15:14.756Z,100385.36
2017-07-20T04:17:43.107Z,100384.17
2017-07-20T04:20:11.541Z,100400.21
2017-07-20T04:22:39.906Z,100392.64
2017-07-20T04:25:08.717Z,100401.30
2017-07-20T04:27:37.085Z,100394.03
2017-07-20T04:30:05.433Z,100386.31
2017-07-20T04:32:33.805Z,100367.55
2017-07-20T04:35:02.788Z,100368.41
2017-07-20T04:37:31.563Z,100379.31
2017-07-20T04:39:59.920Z,100370.77
2017-07-20T04:42:28.308Z,100359.73
2017-07-20T04:44:56.689Z,100354.88
2017-07-20T04:47:25.510Z,100345.92
2017-07-20T04:49:54.268Z,100333.83
2017-07-20T04:52:22.645Z,100327.56
2017-07-20T04:54:51.008Z,100332.81
2017-07-20T04:57:19.374Z,100325.72
2017-07-20T04:59:47.994Z,100330.68
2017-07-20T05:02:16.358Z,100328.77
2017-07-20T05:04:44.707Z,100324.36
2017-07-20T05:07:13.072Z,100327.31
2017-07-20T05:09:41.826Z,100329.19
2017-07-20T05:12:10.396Z,100328.93
2017-07-20T05:14:38.743Z,100329.45
2017-07-20T05:17:07.095Z,100320.86
2017-07-20T05:19:35.868Z,100323.75
2017-07-20T05:22:04.213Z,100318.23
2017-07-20T05:24:32.568Z,100325.86
2017-07-20T05:27:00.923Z,100331.13
2017-07-20T05:29:29.868Z,100323.60
2017-07-20T05:31:58.254Z,100314.48
2017-07-20T05:34:26.616Z,100321.34
2017-07-20T05:36:54.976Z,100319.92
2017-07-20T05:39:23.331Z,100322.90
2017-07-20T05:41:52.088Z,100320.48
2017-07-20T05:44:20.440Z,100315.70
2017-07-20T05:46:48.795Z,100309.22
2017-07-20T05:49:17.164Z,100305.88
2017-07-20T05:51:45.541Z,100305.66
2017-07-20T05:54:13.920Z,100312.43
2017-07-20T05:56:42.652Z,100313.50
2017-07-20T05:59:11.016Z,100304.95
2017-07-20T06:01:39.381Z,100300.20
2017-07-20T06:04:07.751Z,100307.80
2017-07-20T06:06:36.109Z,100308.56
2017-07-20T06:09:04.481Z,100307.48
2017-07-20T06:11:32.931Z,100317.84
2017-07-20T06:14:01.293Z,100323.48
2017-07-20T06:16:29.639Z,100319.06
2017-07-20T06:18:58.400Z,100322.58
2017-07-20T06:21:27.012Z,100324.19
2017-07-20T06:23:55.550Z,100316.55
2017-07-20T06:26:23.909Z,100310.07
2017-07-20T06:28:52.264Z,100303.48
2017-07-20T06:31:20.637Z,100302.02
2017-07-20T06:33:49.392Z,100302.84
2017-07-20T06:36:17.747Z,100302.20
2017-07-20T06:38:46.108Z,100308.06
2017-07-20T06:41:14.516Z,100301.55
2017-07-20T06:43:43.088Z,100298.29
2017-07-20T06:46:11.585Z,100298.76
2017-07-20T06:48:39.954Z,100295.79
2017-07-20T06:51:08.310Z,100293.97
2017-07-20T06:53:36.829Z,100286.61
2017-07-20T06:56:05.184Z,100292.80
2017-07-20T06:58:33.553Z,100283.34
2017-07-20T07:01:01.914Z,100277.77
2017-07-20T07:06:04.210Z,100266.72
2017-07-20T07:08:32.577Z,100267.77
2017-07-20T07:11:01.331Z,100271.77
2017-07-20T07:13:29.684Z,100265.95
2017-07-20T07:15:58.046Z,100268.34
2017-07-20T07:18:26.387Z,100266.16
2017-07-20T07:20:54.762Z,100269.77
2017-07-20T07:23:23.103Z,100277.47
2017-07-20T07:25:51.592Z,100267.11
2017-07-20T07:28:19.944Z,100275.59
2017-07-20T07:30:48.304Z,100276.57
2017-07-20T07:33:17.080Z,100275.22
2017-07-20T07:35:45.821Z,100276.75
2017-07-20T07:38:14.179Z,100281.37
2017-07-20T07:40:42.585Z,100279.47
2017-07-20T07:43:10.950Z,100287.46
2017-07-20T07:45:39.349Z,100281.52
2017-07-20T07:48:08.078Z,100279.34
2017-07-20T07:50:36.841Z,100280.27
2017-07-20T07:53:05.192Z,100288.42
2017-07-20T07:55:33.552Z,100288.87
2017-07-20T07:58:02.595Z,100291.32
2017-07-20T08:00:32.393Z,100283.86
2017-07-20T08:03:01.989Z,100283.25
2017-07-20T08:05:30.768Z,100286.09
2017-07-20T08:08:01.175Z,100280.41
2017-07-20T08:10:30.736Z,100285.55
2017-07-20T08:12:59.594Z,100284.37
2017-07-20T08:15:28.151Z,100283.08
2017-07-20T08:17:58.555Z,100284.45
2017-07-20T08:20:27.661Z,100281.12
2017-07-20T08:22:57.718Z,100283.11
2017-07-20T08:25:26.508Z,100290.59
2017-07-20T08:27:56.104Z,100291.85
2017-07-20T08:30:25.171Z,100296.92
2017-07-20T08:32:54.724Z,100289.53
2017-07-20T08:35:23.090Z,100286.42
2017-07-20T08:37:51.558Z,100282.97
2017-07-20T08:40:19.903Z,100287.33
2017-07-20T08:42:48.249Z,100282.78
2017-07-20T08:45:16.630Z,100283.17
2017-07-20T08:47:44.975Z,100283.15
2017-07-20T08:50:13.331Z,100275.67
2017-07-20T08:52:41.702Z,100276.62
2017-07-20T08:55:10.206Z,100275.14
2017-07-20T08:57:38.955Z,100279.52
2017-07-20T09:00:07.305Z,100275.41
2017-07-20T09:02:35.650Z,100273.77
2017-07-20T09:05:04.391Z,100279.75
2017-07-20T09:07:32.751Z,100278.37
2017-07-20T09:10:01.104Z,100277.12
2017-07-20T09:12:30.170Z,100275.72
2017-07-20T09:14:58.524Z,100277.43
2017-07-20T09:17:26.862Z,100275.55
2017-07-20T09:19:56.355Z,100275.23
2017-07-20T09:22:25.344Z,100280.56
2017-07-20T09:24:54.087Z,100282.97
2017-07-20T09:27:22.437Z,100284.72
2017-07-20T09:29:50.779Z,100282.11
2017-07-20T09:32:19.133Z,100282.31
2017-07-20T09:34:47.480Z,100288.55
2017-07-20T09:37:16.000Z,100280.58
2017-07-20T09:39:44.349Z,100280.55
2017-07-20T09:42:12.691Z,100287.05
2017-07-20T09:44:41.460Z,100291.12
2017-07-20T09:47:09.812Z,100286.98
2017-07-20T09:49:38.381Z,100289.22
2017-07-20T09:52:06.751Z,100271.88
2017-07-20T09:54:35.146Z,100273.11
2017-07-20T09:57:03.494Z,100264.53
2017-07-20T09:59:31.838Z,100262.04
2017-07-20T10:02:00.396Z,100253.25
2017-07-20T10:04:28.742Z,100251.36
2017-07-20T10:06:57.101Z,100253.66
2017-07-20T10:09:25.857Z,100248.55
2017-07-20T10:11:54.198Z,100244.92
2017-07-20T10:14:22.546Z,100247.40
2017-07-20T10:16:51.284Z,100246.84
2017-07-20T10:19:19.639Z,100253.38
2017-07-20T10:21:47.988Z,100248.80
2017-07-20T10:24:16.372Z,100250.89
2017-07-20T10:26:45.458Z,100249.81
2017-07-20T10:29:14.402Z,100251.54
2017-07-20T10:31:42.746Z,100250.30
2017-07-20T10:34:11.500Z,100239.73
2017-07-20T10:36:39.864Z,100238.77
2017-07-20T10:39:08.212Z,100237.19
2017-07-20T10:41:36.710Z,100242.11
2017-07-20T10:44:05.054Z,100236.23
2017-07-20T10:46:33.791Z,100234.59
2017-07-20T10:49:02.236Z,100239.80
2017-07-20T10:51:30.575Z,100243.93
2017-07-20T10:53:59.127Z,100242.14
2017-07-20T10:56:27.476Z,100235.91
2017-07-20T10:58:55.828Z,100232.19
2017-07-20T11:01:24.584Z,100232.36
2017-07-20T11:03:52.930Z,100225.00
2017-07-20T11:06:21.618Z,100224.16
2017-07-20T11:08:50.270Z,100222.52
2017-07-20T11:11:19.110Z,100229.98
2017-07-20T11:13:47.704Z,100229.45
2017-07-20T11:16:16.052Z,100228.28
2017-07-20T11:18:44.436Z,100215.80
2017-07-20T11:21:13.160Z,100219.73
2017-07-20T11:23:41.494Z,100222.64
2017-07-20T11:26:09.859Z,100207.56
2017-07-20T11:28:38.808Z,100222.80
2017-07-20T11:31:07.149Z,100221.83
2017-07-20T11:33:35.814Z,100226.98
2017-07-20T11:36:04.456Z,100227.42
2017-07-20T11:38:32.802Z,100223.63
2017-07-20T11:41:01.148Z,100218.91
2017-07-20T11:43:30.099Z,100225.59
2017-07-20T11:45:58.452Z,100209.41
2017-07-20T11:48:26.800Z,100205.63
2017-07-20T11:50:55.867Z,100204.02
2017-07-20T11:53:24.476Z,100205.09
2017-07-20T11:55:53.224Z,100204.62
2017-07-20T11:58:22.016Z,100207.69
2017-07-20T12:00:50.397Z,100203.73
2017-07-20T12:03:19.050Z,100212.06
2017-07-20T12:05:47.656Z,100212.48
2017-07-20T12:08:16.003Z,100208.66
2017-07-20T12:10:44.342Z,100216.94
2017-07-20T12:13:12.708Z,100218.72
2017-07-20T12:15:41.064Z,100219.57
2017-07-20T12:18:09.406Z,100216.28
2017-07-20T12:20:38.335Z,100216.59
2017-07-20T12:23:06.685Z,100219.58
2017-07-20T12:25:35.428Z,100211.14
2017-07-20T12:28:03.787Z,100208.19
2017-07-20T12:30:32.125Z,100205.75
2017-07-20T12:33:02.535Z,100190.08
2017-07-20T12:35:30.876Z,100191.23
2017-07-20T12:37:59.464Z,100191.84
2017-07-20T12:40:27.809Z,100192.35
2017-07-20T12:42:56.147Z,100196.64
2017-07-20T12:45:24.498Z,100181.02
2017-07-20T12:47:52.959Z,100186.63
2017-07-20T12:50:21.320Z,100172.79
2017-07-20T12:52:49.673Z,100186.02
2017-07-20T12:55:18.015Z,100186.44
2017-07-20T12:57:46.387Z,100181.30
2017-07-20T13:00:14.882Z,100188.73
2017-07-20T13:02:43.229Z,100186.06
2017-07-20T13:05:11.581Z,100189.44
2017-07-20T13:07:40.333Z,100173.68
2017-07-20T13:10:08.670Z,100174.56
2017-07-20T13:12:37.232Z,100173.64
2017-07-20T13:15:05.971Z,100184.02
2017-07-20T13:17:34.326Z,100181.51
2017-07-20T13:20:02.692Z,100180.25
2017-07-20T13:22:31.037Z,100186.84
2017-07-20T13:24:59.587Z,100186.37
2017-07-20T13:27:27.936Z,100182.25
2017-07-20T13:29:56.296Z,100177.08
2017-07-20T13:32:25.134Z,100176.67
2017-07-20T13:34:53.493Z,100178.36
2017-07-20T13:37:21.842Z,100177.75
2017-07-20T13:39:50.578Z,100168.50
2017-07-20T13:42:19.054Z,100172.61
2017-07-20T13:44:47.454Z,100180.23
2017-07-20T13:47:15.889Z,100177.52
2017-07-20T13:49:44.239Z,100178.48
2017-07-20T13:52:12.586Z,100177.17
2017-07-20T13:54:40.953Z,100178.72
2017-07-20T13:57:09.305Z,100178.16
2017-07-20T13:59:37.659Z,100175.52
2017-07-20T14:02:06.016Z,100181.55
2017-07-20T14:04:34.647Z,100180.83
2017-07-20T14:07:03.002Z,100172.00
2017-07-20T14:09:31.455Z,100171.93
2017-07-20T14:11:59.811Z,100178.66
2017-07-20T14:14:28.163Z,100176.05
2017-07-20T14:16:56.515Z,100171.33
2017-07-20T14:19:24.861Z,100168.75
2017-07-20T14:21:53.231Z,100172.89
2017-07-20T14:24:21.589Z,100169.49
2017-07-20T14:26:49.960Z,100168.31
2017-07-20T14:29:18.316Z,100172.44
2017-07-20T14:31:46.679Z,100165.11
2017-07-20T14:34:15.019Z,100163.15
2017-07-20T14:36:43.515Z,100163.21
2017-07-20T14:39:11.867Z,100161.42
2017-07-20T14:41:40.207Z,100162.59
2017-07-20T14:44:08.563Z,100161.30
2017-07-20T14:46:36.911Z,100162.17
2017-07-20T14:49:05.272Z,100159.74
2017-07-20T14:51:33.670Z,100157.52
2017-07-20T14:54:02.027Z,100160.52
2017-07-20T14:56:30.762Z,100156.08
2017-07-20T14:58:59.114Z,100167.36
2017-07-20T15:01:28.203Z,100166.39
2017-07-20T15:03:56.672Z,100176.09
2017-07-20T15:06:25.027Z,100177.81
2017-07-20T15:08:53.385Z,100175.46
2017-07-20T15:11:22.548Z,100173.67
2017-07-20T15:13:50.890Z,100183.27
2017-07-20T15:16:19.643Z,100182.81
2017-07-20T15:18:47.989Z,100185.13
2017-07-20T15:21:16.691Z,100193.16
2017-07-20T15:23:45.044Z,100198.28
2017-07-20T15:26:13.468Z,100187.77
2017-07-20T15:28:41.818Z,100184.50
2017-07-20T15:31:10.211Z,100184.73
2017-07-20T15:33:38.577Z,100185.45
2017-07-20T15:36:06.936Z,100176.36
2017-07-20T15:38:35.296Z,100176.02
2017-07-20T15:41:04.098Z,100173.27
2017-07-20T15:43:32.969Z,100168.53
2017-07-20T15:46:01.310Z,100174.09
2017-07-20T15:48:29.669Z,100172.78
2017-07-20T15:50:58.010Z,100171.66
2017-07-20T15:53:26.751Z,100173.65
2017-07-20T15:55:55.106Z,100176.70
2017-07-20T15:58:23.455Z,100178.72
2017-07-20T16:00:51.942Z,100191.03
2017-07-20T16:03:20.693Z,100189.89
2017-07-20T16:05:49.280Z,100191.83
2017-07-20T16:08:17.639Z,100203.20
2017-07-20T16:10:46.000Z,100202.22
2017-07-20T16:13:14.364Z,100191.23
2017-07-20T16:15:43.121Z,100199.27
2017-07-20T16:18:11.475Z,100205.06
2017-07-20T16:20:39.829Z,100208.92
2017-07-20T16:23:08.345Z,100205.81
2017-07-20T16:25:36.692Z,100216.85
2017-07-20T16:28:05.054Z,100212.92
2017-07-20T16:30:33.813Z,100213.25
2017-07-20T16:33:02.169Z,100216.67
2017-07-20T16:35:30.520Z,100229.52
2017-07-20T16:37:58.914Z,100224.22
2017-07-20T16:40:27.280Z,100235.52
2017-07-20T16:42:55.692Z,100232.77
2017-07-20T16:45:24.268Z,100233.80
2017-07-20T16:47:52.730Z,100240.75
2017-07-20T16:50:21.080Z,100241.59
2017-07-20T16:52:49.837Z,100233.55
2017-07-20T16:55:18.201Z,100230.75
2017-07-20T16:57:46.784Z,100233.67
2017-07-20T17:00:15.148Z,100229.96
2017-07-20T17:02:43.506Z,100239.05
2017-07-20T17:05:11.864Z,100239.34
2017-07-20T17:07:40.664Z,100238.96
2017-07-20T17:10:09.332Z,100248.17
2017-07-20T17:12:38.082Z,100252.84
2017-07-20T17:15:06.483Z,100244.84
2017-07-20T17:17:35.034Z,100254.11
2017-07-20T17:20:03.388Z,100259.39
2017-07-20T17:22:31.749Z,100249.58
2017-07-20T17:25:00.509Z,100243.98
2017-07-20T17:27:28.868Z,100229.92
2017-07-20T17:29:57.445Z,100230.17
2017-07-20T17:32:25.914Z,100223.19
2017-07-20T17:34:54.382Z,100216.45
2017-07-20T17:37:22.736Z,100217.27
2017-07-20T17:39:51.691Z,100221.23
2017-07-20T17:42:20.056Z,100235.97
2017-07-20T17:44:48.399Z,100240.85
2017-07-20T17:47:17.150Z,100238.23
2017-07-20T17:49:45.888Z,100236.86
2017-07-20T17:52:14.271Z,100241.44
2017-07-20T17:54:42.741Z,100240.63
2017-07-20T17:57:11.167Z,100252.08
2017-07-20T17:59:39.519Z,100249.03
2017-07-20T18:02:08.245Z,100254.87
2017-07-20T18:04:36.600Z,100252.64
2017-07-20T18:07:04.956Z,100251.13
2017-07-20T18:09:33.358Z,100252.81
2017-07-20T18:12:02.415Z,100247.08
2017-07-20T18:14:30.779Z,100247.67
2017-07-20T18:16:59.136Z,100247.92
2017-07-20T18:19:27.509Z,100254.33
2017-07-20T18:21:55.864Z,100253.97
2017-07-20T18:24:24.238Z,100264.78
2017-07-20T18:26:52.586Z,100264.52
2017-07-20T18:29:21.438Z,100265.33
2017-07-20T18:31:49.796Z,100269.39
2017-07-20T18:34:18.150Z,100271.00
2017-07-20T18:36:46.508Z,100278.37
2017-07-20T18:39:15.256Z,100289.20
2017-07-20T18:41:43.624Z,100289.30
2017-07-20T18:44:11.978Z,100293.34
2017-07-20T18:46:40.339Z,100295.67
2017-07-20T18:49:09.079Z,100301.37
2017-07-20T18:51:37.551Z,100306.91
2017-07-20T18:54:05.924Z,100312.95
2017-07-20T18:56:34.286Z,100308.28
2017-07-20T18:59:02.643Z,100310.45
2017-07-20T19:01:31.378Z,100312.97
2017-07-20T19:03:59.735Z,100317.39
2017-07-20T19:06:28.088Z,100323.25
2017-07-20T19:08:56.844Z,100332.56
2017-07-20T19:11:25.201Z,100334.12
2017-07-20T19:13:53.801Z,100334.55
2017-07-20T19:16:22.149Z,100329.28
2017-07-20T19:18:50.496Z,100334.12
2017-07-20T19:21:19.247Z,100340.27
2017-07-20T19:23:47.601Z,100339.25
2017-07-20T19:26:15.961Z,100329.56
2017-07-20T19:28:44.304Z,100333.49
2017-07-20T19:31:12.655Z,100342.58
2017-07-20T19:33:41.013Z,100349.66
2017-07-20T19:36:09.419Z,100349.47
2017-07-20T19:38:37.766Z,100358.58
2017-07-20T19:41:06.132Z,100358.82
2017-07-20T19:43:34.876Z,100365.38
2017-07-20T19:46:03.455Z,100364.42
2017-07-20T19:48:31.801Z,100362.58
2017-07-20T19:51:00.147Z,100362.16
2017-07-20T19:53:28.504Z,100362.41
2017-07-20T19:55:56.844Z,100363.86
2017-07-20T20:01:00.170Z,100374.21
2017-07-20T20:03:28.528Z,100374.61
2017-07-20T20:05:56.912Z,100375.91
2017-07-20T20:08:25.402Z,100383.28
2017-07-20T20:10:53.775Z,100379.35
2017-07-20T20:13:22.140Z,100379.09
2017-07-20T20:15:50.493Z,100381.23
2017-07-20T20:18:19.303Z,100376.64
2017-07-20T20:20:47.651Z,100380.70
2017-07-20T20:23:16.040Z,100379.10
2017-07-20T20:25:44.999Z,100380.86
2017-07-20T20:28:13.353Z,100378.42
2017-07-20T20:30:41.756Z,100376.09
2017-07-20T20:33:10.107Z,100380.02
2017-07-20T20:35:38.465Z,100382.80
2017-07-20T20:38:07.212Z,100381.25
2017-07-20T20:40:35.568Z,100375.03
2017-07-20T20:43:03.934Z,100375.38
2017-07-20T20:45:32.281Z,100374.61
2017-07-20T20:48:00.724Z,100382.86
2017-07-20T20:50:29.083Z,100385.41
2017-07-20T20:52:57.588Z,100382.94
2017-07-20T20:55:25.926Z,100382.75
2017-07-20T20:57:54.281Z,100391.80
2017-07-20T21:00:23.029Z,100384.40
2017-07-20T21:02:51.411Z,100389.91
2017-07-20T21:05:19.924Z,100384.92
2017-07-20T21:07:48.371Z,100390.39
2017-07-20T21:10:16.736Z,100391.78
2017-07-20T21:12:45.088Z,100392.97
2017-07-20T21:15:13.504Z,100385.00
2017-07-20T21:17:41.855Z,100382.44
2017-07-20T21:20:10.847Z,100378.34
2017-07-20T21:22:39.406Z,100385.81
2017-07-20T21:25:08.170Z,100380.11
2017-07-20T21:27:36.596Z,100375.13
2017-07-20T21:30:04.946Z,100375.35
2017-07-20T21:32:33.290Z,100376.86
2017-07-20T21:35:01.914Z,100373.72
2017-07-20T21:37:30.681Z,100374.80
2017-07-20T21:39:59.438Z,100378.51
2017-07-20T21:42:27.811Z,100386.17
2017-07-20T21:44:56.194Z,100383.75
2017-07-20T21:47:24.587Z,100386.31
2017-07-20T21:49:52.950Z,100387.75
2017-07-20T21:52:21.466Z,100393.09
2017-07-20T21:54:49.814Z,100391.91
2017-07-20T21:57:18.210Z,100391.06
2017-07-20T21:59:46.577Z,100394.52
2017-07-20T22:02:14.929Z,100406.12
2017-07-20T22:04:43.679Z,100401.88
2017-07-20T22:07:12.031Z,100400.23
2017-07-20T22:09:40.391Z,100413.99
2017-07-20T22:12:08.740Z,100414.14
2017-07-20T22:14:37.678Z,100414.84
2017-07-20T22:17:06.031Z,100420.06
2017-07-20T22:19:34.386Z,100418.02
2017-07-20T22:22:03.151Z,100419.08
2017-07-20T22:24:31.519Z,100427.13
2017-07-20T22:26:59.870Z,100424.92
2017-07-20T22:29:28.223Z,100423.23
2017-07-20T22:31:56.980Z,100423.22
2017-07-20T22:34:25.347Z,100417.67
2017-07-20T22:36:53.922Z,100421.38
2017-07-20T22:39:22.270Z,100421.53
2017-07-20T22:41:50.632Z,100423.78
2017-07-20T22:44:19.383Z,100427.02
2017-07-20T22:46:47.737Z,100427.16
2017-07-20T22:49:16.108Z,100427.76
2017-07-20T22:51:44.454Z,100431.73
2017-07-20T22:54:13.207Z,100432.92
2017-07-20T22:56:41.564Z,100431.85
2017-07-20T22:59:10.156Z,100436.28
2017-07-20T23:01:38.516Z,100432.90
2017-07-20T23:04:06.870Z,100437.33
2017-07-20T23:06:35.627Z,100438.23
2017-07-20T23:09:04.064Z,100424.07
2017-07-20T23:11:32.428Z,100432.05
2017-07-20T23:14:00.770Z,100432.16
2017-07-20T23:16:29.131Z,100436.19
2017-07-20T23:18:57.475Z,100433.94
2017-07-20T23:21:25.848Z,100439.54
2017-07-20T23:23:54.191Z,100440.95
2017-07-20T23:26:22.720Z,100441.56
2017-07-20T23:28:51.067Z,100445.23
2017-07-20T23:31:19.806Z,100443.06
2017-07-20T23:33:48.642Z,100446.48
2017-07-20T23:36:16.996Z,100445.56
2017-07-20T23:38:45.364Z,100444.42
2017-07-20T23:41:13.719Z,100447.09
2017-07-20T23:43:42.093Z,100444.77
2017-07-20T23:46:10.442Z,100443.17
2017-07-20T23:48:39.201Z,100439.01
2017-07-20T23:51:07.548Z,100437.12
2017-07-20T23:53:35.913Z,100445.03
2017-07-20T23:56:04.265Z,100441.27
2017-07-20T23:58:32.947Z,100440.29
